sensor_id;sensor_type;location;lat;lon;timestamp;pressure;altitude;pressure_sealevel;temperature;humidity
28683;BME280;15862;43.062;25.626;2023-02-19T00:00:31;100095.47;;;4.00;100.00
28683;BME280;15862;43.062;25.626;2023-02-19T00:02:56;100092.22;;;3.96;100.00
28683;BME280;15862;43.062;25.626;2023-02-19T00:05:22;100076.13;;;3.94;100.00
28683;BME280;15862;43.062;25.626;2023-02-19T00:07:48;100072.66;;;3.95;100.00
28683;BME280;15862;43.062;25.626;2023-02-19T00:10:14;100088.28;;;3.89;100.00
28683;BME280;15862;43.062;25.626;2023-02-19T00:12:39;100094.16;;;3.91;100.00
28683;BME280;15862;43.062;25.626;2023-02-19T00:15:05;100082.03;;;3.77;100.00
28683;BME280;15862;43.062;25.626;2023-02-19T00:17:30;100086.69;;;3.87;100.00
28683;BME280;15862;43.062;25.626;2023-02-19T00:19:56;100092.88;;;3.81;100.00
28683;BME280;15862;43.062;25.626;2023-02-19T00:22:22;100088.50;;;3.65;100.00
28683;BME280;15862;43.062;25.626;2023-02-19T00:24:48;100094.44;;;3.66;100.00
28683;BME280;15862;43.062;25.626;2023-02-19T00:27:13;100089.59;;;3.60;100.00
28683;BME280;15862;43.062;25.626;2023-02-19T00:29:39;100088.69;;;3.61;100.00
28683;BME280;15862;43.062;25.626;2023-02-19T00:32:04;100078.69;;;3.56;100.00
28683;BME280;15862;43.062;25.626;2023-02-19T00:34:30;100087.72;;;3.63;100.00
28683;BME280;15862;43.062;25.626;2023-02-19T00:36:55;100089.59;;;3.60;100.00
28683;BME280;15862;43.062;25.626;2023-02-19T00:39:20;100083.72;;;3.58;100.00
28683;BME280;15862;43.062;25.626;2023-02-19T00:41:46;100074.09;;;3.44;100.00
28683;BME280;15862;43.062;25.626;2023-02-19T00:44:12;100077.66;;;3.40;100.00
28683;BME280;15862;43.062;25.626;2023-02-19T00:46:40;100073.63;;;3.35;100.00
28683;BME280;15862;43.062;25.626;2023-02-19T00:49:06;100079.00;;;3.29;100.00
28683;BME280;15862;43.062;25.626;2023-02-19T00:51:35;100069.81;;;3.25;100.00
28683;BME280;15862;43.062;25.626;2023-02-19T00:54:01;100066.41;;;3.24;100.00
28683;BME280;15862;43.062;25.626;2023-02-19T00:56:27;100065.53;;;3.25;100.00
28683;BME280;15862;43.062;25.626;2023-02-19T00:58:52;100064.66;;;3.26;100.00
28683;BME280;15862;43.062;25.626;2023-02-19T01:01:18;100070.59;;;3.27;100.00
28683;BME280;15862;43.062;25.626;2023-02-19T01:03:45;100065.22;;;3.33;100.00
28683;BME280;15862;43.062;25.626;2023-02-19T01:06:13;100059.34;;;3.31;100.00
28683;BME280;15862;43.062;25.626;2023-02-19T01:08:39;100058.19;;;3.38;100.00
28683;BME280;15862;43.062;25.626;2023-02-19T01:11:06;100056.47;;;3.38;100.00
28683;BME280;15862;43.062;25.626;2023-02-19T01:13:33;100046.84;;;3.25;100.00
28683;BME280;15862;43.062;25.626;2023-02-19T01:16:07;100052.50;;;3.31;100.00
28683;BME280;15862;43.062;25.626;2023-02-19T01:18:33;100051.88;;;3.26;100.00
28683;BME280;15862;43.062;25.626;2023-02-19T01:20:59;100051.06;;;3.26;100.00
28683;BME280;15862;43.062;25.626;2023-02-19T01:23:28;100050.91;;;3.29;100.00
28683;BME280;15862;43.062;25.626;2023-02-19T01:25:53;100050.72;;;3.33;100.00
28683;BME280;15862;43.062;25.626;2023-02-19T01:28:19;100043.66;;;3.40;100.00
28683;BME280;15862;43.062;25.626;2023-02-19T01:30:44;100032.06;;;3.33;100.00
28683;BME280;15862;43.062;25.626;2023-02-19T01:33:10;100045.31;;;3.41;100.00
28683;BME280;15862;43.062;25.626;2023-02-19T01:35:38;100033.50;;;3.38;100.00
28683;BME280;15862;43.062;25.626;2023-02-19T01:38:04;100046.91;;;3.43;100.00
28683;BME280;15862;43.062;25.626;2023-02-19T01:40:31;100051.69;;;3.51;100.00
28683;BME280;15862;43.062;25.626;2023-02-19T01:42:57;100057.44;;;3.56;100.00
28683;BME280;15862;43.062;25.626;2023-02-19T01:48:16;100057.44;;;3.56;100.00
28683;BME280;15862;43.062;25.626;2023-02-19T01:50:46;100064.44;;;3.51;100.00
28683;BME280;15862;43.062;25.626;2023-02-19T01:53:16;100059.59;;;3.45;100.00
28683;BME280;15862;43.062;25.626;2023-02-19T01:55:45;100066.63;;;3.40;100.00
28683;BME280;15862;43.062;25.626;2023-02-19T01:58:13;100058.31;;;3.35;100.00
28683;BME280;15862;43.062;25.626;2023-02-19T02:00:38;100063.56;;;3.32;100.00
28683;BME280;15862;43.062;25.626;2023-02-19T02:03:04;100075.56;;;3.30;100.00
28683;BME280;15862;43.062;25.626;2023-02-19T02:06:01;100073.84;;;3.30;100.00
28683;BME280;15862;43.062;25.626;2023-02-19T02:08:28;100078.47;;;3.21;100.00
28683;BME280;15862;43.062;25.626;2023-02-19T02:11:14;100070.56;;;3.07;100.00
28683;BME280;15862;43.062;25.626;2023-02-19T02:13:39;100073.88;;;2.89;100.00
28683;BME280;15862;43.062;25.626;2023-02-19T02:19:00;100083.56;;;3.01;100.00
28683;BME280;15862;43.062;25.626;2023-02-19T02:32:41;100110.38;;;3.11;100.00
28683;BME280;15862;43.062;25.626;2023-02-19T02:35:19;100096.84;;;3.09;100.00
28683;BME280;15862;43.062;25.626;2023-02-19T02:37:47;100092.06;;;3.02;100.00
28683;BME280;15862;43.062;25.626;2023-02-19T02:40:14;100106.09;;;3.11;100.00
28683;BME280;15862;43.062;25.626;2023-02-19T02:42:41;100096.03;;;3.08;100.00
28683;BME280;15862;43.062;25.626;2023-02-19T02:45:29;100104.06;;;3.19;100.00
28683;BME280;15862;43.062;25.626;2023-02-19T02:53:48;100104.50;;;3.09;100.00
28683;BME280;15862;43.062;25.626;2023-02-19T02:56:35;100107.16;;;3.06;100.00
28683;BME280;15862;43.062;25.626;2023-02-19T02:59:03;100114.06;;;3.04;100.00
28683;BME280;15862;43.062;25.626;2023-02-19T03:07:35;100117.03;;;2.72;100.00
28683;BME280;15862;43.062;25.626;2023-02-19T03:10:07;100124.41;;;2.58;100.00
28683;BME280;15862;43.062;25.626;2023-02-19T03:12:37;100133.16;;;2.51;100.00
28683;BME280;15862;43.062;25.626;2023-02-19T03:15:25;100128.16;;;2.48;100.00
28683;BME280;15862;43.062;25.626;2023-02-19T03:18:10;100111.34;;;2.44;100.00
28683;BME280;15862;43.062;25.626;2023-02-19T03:20:57;100128.31;;;2.45;100.00
28683;BME280;15862;43.062;25.626;2023-02-19T03:23:26;100129.84;;;2.49;100.00
28683;BME280;15862;43.062;25.626;2023-02-19T03:26:13;100131.72;;;2.44;100.00
28683;BME280;15862;43.062;25.626;2023-02-19T03:28:42;100128.34;;;2.44;100.00
28683;BME280;15862;43.062;25.626;2023-02-19T03:31:29;100131.09;;;2.39;100.00
28683;BME280;15862;43.062;25.626;2023-02-19T03:33:59;100124.59;;;2.31;100.00
28683;BME280;15862;43.062;25.626;2023-02-19T03:36:34;100126.72;;;2.20;100.00
28683;BME280;15862;43.062;25.626;2023-02-19T03:39:05;100123.22;;;2.00;100.00
28683;BME280;15862;43.062;25.626;2023-02-19T03:44:15;100127.19;;;2.07;100.00
28683;BME280;15862;43.062;25.626;2023-02-19T03:52:15;100137.75;;;1.96;100.00
28683;BME280;15862;43.062;25.626;2023-02-19T03:57:25;100138.00;;;1.90;100.00
28683;BME280;15862;43.062;25.626;2023-02-19T03:59:58;100138.94;;;1.88;100.00
28683;BME280;15862;43.062;25.626;2023-02-19T04:02:57;100141.31;;;1.92;100.00
28683;BME280;15862;43.062;25.626;2023-02-19T04:05:28;100136.38;;;1.88;100.00
28683;BME280;15862;43.062;25.626;2023-02-19T04:07:59;100142.44;;;1.84;100.00
28683;BME280;15862;43.062;25.626;2023-02-19T04:10:28;100131.53;;;1.80;100.00
28683;BME280;15862;43.062;25.626;2023-02-19T04:13:05;100136.69;;;1.79;100.00
28683;BME280;15862;43.062;25.626;2023-02-19T04:15:33;100130.41;;;1.89;100.00
28683;BME280;15862;43.062;25.626;2023-02-19T04:18:03;100137.47;;;1.81;100.00
28683;BME280;15862;43.062;25.626;2023-02-19T04:20:35;100128.13;;;1.81;100.00
28683;BME280;15862;43.062;25.626;2023-02-19T04:23:02;100116.47;;;1.74;100.00
28683;BME280;15862;43.062;25.626;2023-02-19T04:25:28;100134.16;;;1.79;100.00
28683;BME280;15862;43.062;25.626;2023-02-19T04:27:54;100134.00;;;1.83;100.00
28683;BME280;15862;43.062;25.626;2023-02-19T04:30:20;100140.03;;;1.81;100.00
28683;BME280;15862;43.062;25.626;2023-02-19T04:32:45;100129.94;;;1.78;100.00
28683;BME280;15862;43.062;25.626;2023-02-19T04:35:11;100142.75;;;1.75;100.00
28683;BME280;15862;43.062;25.626;2023-02-19T04:37:36;100150.59;;;1.70;100.00
28683;BME280;15862;43.062;25.626;2023-02-19T04:40:02;100151.31;;;1.74;100.00
28683;BME280;15862;43.062;25.626;2023-02-19T04:42:27;100169.00;;;1.77;100.00
28683;BME280;15862;43.062;25.626;2023-02-19T04:44:53;100166.47;;;1.77;100.00
28683;BME280;15862;43.062;25.626;2023-02-19T04:47:18;100177.44;;;1.79;100.00
28683;BME280;15862;43.062;25.626;2023-02-19T04:49:44;100158.16;;;1.72;100.00
28683;BME280;15862;43.062;25.626;2023-02-19T04:52:10;100162.59;;;1.67;100.00
28683;BME280;15862;43.062;25.626;2023-02-19T04:54:35;100179.09;;;1.80;100.00
28683;BME280;15862;43.062;25.626;2023-02-19T04:57:00;100162.53;;;1.68;100.00
28683;BME280;15862;43.062;25.626;2023-02-19T04:59:26;100180.41;;;1.67;100.00
28683;BME280;15862;43.062;25.626;2023-02-19T05:01:51;100180.56;;;1.61;100.00
28683;BME280;15862;43.062;25.626;2023-02-19T05:04:17;100194.69;;;1.71;100.00
28683;BME280;15862;43.062;25.626;2023-02-19T05:06:43;100195.41;;;1.74;100.00
28683;BME280;15862;43.062;25.626;2023-02-19T05:09:08;100202.22;;;1.74;100.00
28683;BME280;15862;43.062;25.626;2023-02-19T05:11:33;100215.81;;;1.73;100.00
28683;BME280;15862;43.062;25.626;2023-02-19T05:13:59;100209.31;;;1.64;100.00
28683;BME280;15862;43.062;25.626;2023-02-19T05:16:24;100223.56;;;1.70;100.00
28683;BME280;15862;43.062;25.626;2023-02-19T05:18:50;100240.28;;;1.77;100.00
28683;BME280;15862;43.062;25.626;2023-02-19T05:21:15;100226.75;;;1.76;100.00
28683;BME280;15862;43.062;25.626;2023-02-19T05:23:42;100240.28;;;1.77;100.00
28683;BME280;15862;43.062;25.626;2023-02-19T05:26:12;100248.38;;;1.89;100.00
28683;BME280;15862;43.062;25.626;2023-02-19T05:28:38;100251.94;;;2.08;100.00
28683;BME280;15862;43.062;25.626;2023-02-19T05:31:06;100258.47;;;2.17;100.00
28683;BME280;15862;43.062;25.626;2023-02-19T05:33:32;100254.13;;;2.19;100.00
28683;BME280;15862;43.062;25.626;2023-02-19T05:35:58;100264.69;;;2.32;100.00
28683;BME280;15862;43.062;25.626;2023-02-19T05:38:23;100264.34;;;2.41;100.00
28683;BME280;15862;43.062;25.626;2023-02-19T05:40:49;100265.72;;;2.51;100.00
28683;BME280;15862;43.062;25.626;2023-02-19T05:43:15;100277.84;;;2.68;100.00
28683;BME280;15862;43.062;25.626;2023-02-19T05:45:41;100267.31;;;2.77;100.00
28683;BME280;15862;43.062;25.626;2023-02-19T05:48:07;100277.75;;;2.94;100.00
28683;BME280;15862;43.062;25.626;2023-02-19T05:50:35;100275.44;;;3.09;100.00
28683;BME280;15862;43.062;25.626;2023-02-19T05:53:02;100284.03;;;3.29;100.00
28683;BME280;15862;43.062;25.626;2023-02-19T05:55:29;100272.25;;;3.25;100.00
28683;BME280;15862;43.062;25.626;2023-02-19T05:57:54;100277.06;;;3.54;100.00
28683;BME280;15862;43.062;25.626;2023-02-19T06:00:20;100289.84;;;3.76;100.00
28683;BME280;15862;43.062;25.626;2023-02-19T06:02:46;100294.84;;;3.98;100.00
28683;BME280;15862;43.062;25.626;2023-02-19T06:05:12;100291.41;;;4.19;100.00
28683;BME280;15862;43.062;25.626;2023-02-19T06:07:38;100290.13;;;4.49;100.00
28683;BME280;15862;43.062;25.626;2023-02-19T06:10:05;100281.31;;;4.74;100.00
28683;BME280;15862;43.062;25.626;2023-02-19T06:12:31;100280.28;;;4.97;100.00
28683;BME280;15862;43.062;25.626;2023-02-19T06:14:56;100287.75;;;5.01;100.00
28683;BME280;15862;43.062;25.626;2023-02-19T06:17:22;100282.53;;;5.39;100.00
28683;BME280;15862;43.062;25.626;2023-02-19T06:19:47;100273.25;;;5.55;100.00
28683;BME280;15862;43.062;25.626;2023-02-19T06:22:13;100285.69;;;6.15;100.00
28683;BME280;15862;43.062;25.626;2023-02-19T06:24:39;100285.38;;;7.18;100.00
28683;BME280;15862;43.062;25.626;2023-02-19T06:27:05;100281.16;;;8.22;100.00
28683;BME280;15862;43.062;25.626;2023-02-19T06:29:31;100265.56;;;9.48;100.00
28683;BME280;15862;43.062;25.626;2023-02-19T06:31:57;100275.72;;;10.41;92.30
28683;BME280;15862;43.062;25.626;2023-02-19T06:34:23;100275.53;;;11.65;82.42
28683;BME280;15862;43.062;25.626;2023-02-19T06:36:49;100273.63;;;12.25;72.65
28683;BME280;15862;43.062;25.626;2023-02-19T06:39:15;100253.88;;;13.44;64.30
28683;BME280;15862;43.062;25.626;2023-02-19T06:41:40;100275.63;;;14.47;57.71
28683;BME280;15862;43.062;25.626;2023-02-19T06:44:05;100279.34;;;15.52;55.26
28683;BME280;15862;43.062;25.626;2023-02-19T06:46:31;100259.78;;;16.33;49.88
28683;BME280;15862;43.062;25.626;2023-02-19T06:48:56;100270.69;;;16.65;48.02
28683;BME280;15862;43.062;25.626;2023-02-19T06:51:22;100264.25;;;17.23;48.01
28683;BME280;15862;43.062;25.626;2023-02-19T06:53:50;100261.97;;;17.81;44.81
28683;BME280;15862;43.062;25.626;2023-02-19T06:58:50;100248.22;;;18.57;42.68
28683;BME280;15862;43.062;25.626;2023-02-19T07:01:16;100269.59;;;19.44;41.29
28683;BME280;15862;43.062;25.626;2023-02-19T07:03:41;100261.66;;;19.86;40.52
28683;BME280;15862;43.062;25.626;2023-02-19T07:06:07;100258.63;;;21.00;38.52
28683;BME280;15862;43.062;25.626;2023-02-19T07:08:32;100247.31;;;21.30;38.11
28683;BME280;15862;43.062;25.626;2023-02-19T07:10:57;100239.66;;;21.73;36.93
28683;BME280;15862;43.062;25.626;2023-02-19T07:13:26;100231.53;;;22.05;36.57
28683;BME280;15862;43.062;25.626;2023-02-19T07:16:00;100249.31;;;23.05;35.20
28683;BME280;15862;43.062;25.626;2023-02-19T07:18:27;100233.81;;;23.66;34.34
28683;BME280;15862;43.062;25.626;2023-02-19T07:20:53;100230.94;;;24.51;33.08
28683;BME280;15862;43.062;25.626;2023-02-19T07:23:18;100229.09;;;25.13;32.02
28683;BME280;15862;43.062;25.626;2023-02-19T07:25:44;100233.00;;;25.30;32.52
28683;BME280;15862;43.062;25.626;2023-02-19T07:28:09;100233.22;;;26.20;30.95
28683;BME280;15862;43.062;25.626;2023-02-19T07:30:35;100234.44;;;26.30;31.23
28683;BME280;15862;43.062;25.626;2023-02-19T07:33:00;100224.91;;;27.12;30.43
28683;BME280;15862;43.062;25.626;2023-02-19T07:35:26;100225.19;;;27.41;29.85
28683;BME280;15862;43.062;25.626;2023-02-19T07:37:51;100236.19;;;28.62;28.28
28683;BME280;15862;43.062;25.626;2023-02-19T07:40:17;100228.16;;;29.04;28.25
28683;BME280;15862;43.062;25.626;2023-02-19T07:42:42;100230.25;;;29.02;27.82
28683;BME280;15862;43.062;25.626;2023-02-19T07:45:08;100221.25;;;28.61;26.44
28683;BME280;15862;43.062;25.626;2023-02-19T07:47:33;100213.91;;;27.08;27.92
28683;BME280;15862;43.062;25.626;2023-02-19T07:49:59;100220.56;;;26.09;29.16
28683;BME280;15862;43.062;25.626;2023-02-19T07:52:24;100217.53;;;26.38;29.25
28683;BME280;15862;43.062;25.626;2023-02-19T07:54:50;100196.69;;;27.24;28.38
28683;BME280;15862;43.062;25.626;2023-02-19T07:57:15;100204.88;;;26.40;28.65
28683;BME280;15862;43.062;25.626;2023-02-19T07:59:41;100225.03;;;26.34;28.46
28683;BME280;15862;43.062;25.626;2023-02-19T08:02:18;100211.19;;;26.52;28.79
28683;BME280;15862;43.062;25.626;2023-02-19T08:05:03;100224.66;;;25.26;29.55
28683;BME280;15862;43.062;25.626;2023-02-19T08:07:33;100204.41;;;25.06;29.76
28683;BME280;15862;43.062;25.626;2023-02-19T08:09:59;100197.94;;;24.68;30.48
28683;BME280;15862;43.062;25.626;2023-02-19T08:12:43;100198.44;;;25.38;29.66
28683;BME280;15862;43.062;25.626;2023-02-19T08:15:27;100205.00;;;25.67;29.62
28683;BME280;15862;43.062;25.626;2023-02-19T08:17:52;100210.03;;;24.90;29.75
28683;BME280;15862;43.062;25.626;2023-02-19T08:20:18;100199.13;;;24.11;30.84
28683;BME280;15862;43.062;25.626;2023-02-19T08:22:44;100213.16;;;25.66;29.33
28683;BME280;15862;43.062;25.626;2023-02-19T08:25:09;100210.63;;;25.26;29.00
28683;BME280;15862;43.062;25.626;2023-02-19T08:27:35;100214.88;;;24.46;30.72
28683;BME280;15862;43.062;25.626;2023-02-19T08:30:00;100191.50;;;25.37;29.67
28683;BME280;15862;43.062;25.626;2023-02-19T08:32:26;100202.22;;;26.40;28.72
28683;BME280;15862;43.062;25.626;2023-02-19T08:34:51;100202.72;;;27.75;26.80
28683;BME280;15862;43.062;25.626;2023-02-19T08:37:16;100211.66;;;27.49;27.32
28683;BME280;15862;43.062;25.626;2023-02-19T08:39:42;100199.63;;;27.47;27.70
28683;BME280;15862;43.062;25.626;2023-02-19T08:42:07;100201.16;;;27.67;26.96
28683;BME280;15862;43.062;25.626;2023-02-19T08:44:33;100189.44;;;28.30;26.71
28683;BME280;15862;43.062;25.626;2023-02-19T08:46:58;100183.72;;;29.04;25.52
28683;BME280;15862;43.062;25.626;2023-02-19T08:49:27;100195.91;;;28.09;26.85
28683;BME280;15862;43.062;25.626;2023-02-19T08:51:52;100194.16;;;27.35;27.82
28683;BME280;15862;43.062;25.626;2023-02-19T08:54:17;100184.47;;;26.60;28.61
28683;BME280;15862;43.062;25.626;2023-02-19T08:56:43;100188.91;;;24.56;31.12
28683;BME280;15862;43.062;25.626;2023-02-19T08:59:09;100180.22;;;23.45;32.50
28683;BME280;15862;43.062;25.626;2023-02-19T09:01:35;100163.81;;;22.64;34.07
28683;BME280;15862;43.062;25.626;2023-02-19T09:04:00;100174.50;;;23.62;32.97
28683;BME280;15862;43.062;25.626;2023-02-19T09:06:26;100184.38;;;24.84;31.59
28683;BME280;15862;43.062;25.626;2023-02-19T09:08:51;100175.59;;;25.24;31.03
28683;BME280;15862;43.062;25.626;2023-02-19T09:11:16;100184.06;;;26.24;30.22
28683;BME280;15862;43.062;25.626;2023-02-19T09:13:42;100177.19;;;26.93;29.20
28683;BME280;15862;43.062;25.626;2023-02-19T09:16:08;100185.75;;;27.01;28.94
28683;BME280;15862;43.062;25.626;2023-02-19T09:18:34;100181.13;;;28.20;27.12
28683;BME280;15862;43.062;25.626;2023-02-19T09:21:01;100178.78;;;28.30;27.09
28683;BME280;15862;43.062;25.626;2023-02-19T09:23:27;100183.69;;;28.33;27.07
28683;BME280;15862;43.062;25.626;2023-02-19T09:25:59;100171.72;;;26.81;28.93
28683;BME280;15862;43.062;25.626;2023-02-19T09:28:26;100163.25;;;27.78;27.83
28683;BME280;15862;43.062;25.626;2023-02-19T09:30:52;100174.09;;;27.83;27.88
28683;BME280;15862;43.062;25.626;2023-02-19T09:33:17;100157.97;;;27.10;28.00
28683;BME280;15862;43.062;25.626;2023-02-19T09:35:43;100165.50;;;26.24;29.42
28683;BME280;15862;43.062;25.626;2023-02-19T09:38:08;100171.41;;;27.52;28.33
28683;BME280;15862;43.062;25.626;2023-02-19T09:40:36;100162.84;;;28.05;27.52
28683;BME280;15862;43.062;25.626;2023-02-19T09:43:07;100150.19;;;28.25;26.85
28683;BME280;15862;43.062;25.626;2023-02-19T09:45:34;100167.31;;;28.54;26.97
28683;BME280;15862;43.062;25.626;2023-02-19T09:48:02;100150.06;;;28.14;27.21
28683;BME280;15862;43.062;25.626;2023-02-19T09:50:37;100158.06;;;27.89;27.36
28683;BME280;15862;43.062;25.626;2023-02-19T09:53:32;100151.56;;;27.55;28.02
28683;BME280;15862;43.062;25.626;2023-02-19T09:56:04;100155.72;;;27.44;27.99
28683;BME280;15862;43.062;25.626;2023-02-19T09:58:49;100143.72;;;28.15;27.22
28683;BME280;15862;43.062;25.626;2023-02-19T10:01:17;100137.91;;;28.84;26.59
28683;BME280;15862;43.062;25.626;2023-02-19T10:03:47;100137.47;;;27.85;27.74
28683;BME280;15862;43.062;25.626;2023-02-19T10:06:20;100118.63;;;29.70;26.49
28683;BME280;15862;43.062;25.626;2023-02-19T10:08:52;100121.19;;;29.77;25.72
28683;BME280;15862;43.062;25.626;2023-02-19T10:11:19;100108.47;;;30.02;25.17
28683;BME280;15862;43.062;25.626;2023-02-19T10:13:48;100116.56;;;31.47;24.35
28683;BME280;15862;43.062;25.626;2023-02-19T10:16:23;100099.69;;;32.50;23.29
28683;BME280;15862;43.062;25.626;2023-02-19T10:18:50;100108.50;;;32.67;23.01
28683;BME280;15862;43.062;25.626;2023-02-19T10:21:23;100103.00;;;31.21;24.15
28683;BME280;15862;43.062;25.626;2023-02-19T10:23:58;100104.81;;;31.48;24.18
28683;BME280;15862;43.062;25.626;2023-02-19T10:26:24;100094.09;;;30.03;24.96
28683;BME280;15862;43.062;25.626;2023-02-19T10:28:50;100084.97;;;29.99;24.95
28683;BME280;15862;43.062;25.626;2023-02-19T10:31:21;100080.03;;;29.50;25.42
28683;BME280;15862;43.062;25.626;2023-02-19T10:34:19;100075.56;;;29.21;25.57
28683;BME280;15862;43.062;25.626;2023-02-19T10:36:48;100067.34;;;27.68;26.72
28683;BME280;15862;43.062;25.626;2023-02-19T10:41:47;100054.50;;;28.90;26.30
28683;BME280;15862;43.062;25.626;2023-02-19T10:44:17;100074.31;;;28.76;26.58
28683;BME280;15862;43.062;25.626;2023-02-19T10:46:47;100056.84;;;28.98;26.54
28683;BME280;15862;43.062;25.626;2023-02-19T10:51:42;100062.34;;;30.63;24.62
28683;BME280;15862;43.062;25.626;2023-02-19T10:54:33;100058.88;;;31.35;24.14
28683;BME280;15862;43.062;25.626;2023-02-19T10:57:23;100046.75;;;30.32;24.27
28683;BME280;15862;43.062;25.626;2023-02-19T10:59:59;100057.34;;;30.16;25.05
28683;BME280;15862;43.062;25.626;2023-02-19T11:02:27;100052.94;;;29.87;24.98
28683;BME280;15862;43.062;25.626;2023-02-19T11:07:35;100034.31;;;28.54;26.45
28683;BME280;15862;43.062;25.626;2023-02-19T11:10:02;100038.81;;;27.26;27.18
28683;BME280;15862;43.062;25.626;2023-02-19T11:12:30;100059.00;;;26.66;28.38
28683;BME280;15862;43.062;25.626;2023-02-19T11:15:02;100038.03;;;26.51;28.57
28683;BME280;15862;43.062;25.626;2023-02-19T11:17:37;100040.00;;;25.02;30.35
28683;BME280;15862;43.062;25.626;2023-02-19T11:20:09;100023.66;;;24.73;30.51
28683;BME280;15862;43.062;25.626;2023-02-19T11:22:40;100031.94;;;25.55;30.07
28683;BME280;15862;43.062;25.626;2023-02-19T11:28:16;100028.25;;;25.56;29.55
28683;BME280;15862;43.062;25.626;2023-02-19T11:30:45;100031.22;;;24.29;31.25
28683;BME280;15862;43.062;25.626;2023-02-19T11:33:24;100037.84;;;23.79;31.90
28683;BME280;15862;43.062;25.626;2023-02-19T11:35:57;100040.16;;;23.67;32.48
28683;BME280;15862;43.062;25.626;2023-02-19T11:38:24;100031.78;;;23.57;32.75
28683;BME280;15862;43.062;25.626;2023-02-19T11:44:44;100021.19;;;23.78;32.77
28683;BME280;15862;43.062;25.626;2023-02-19T11:52:41;100009.44;;;24.27;31.84
28683;BME280;15862;43.062;25.626;2023-02-19T11:57:47;100014.59;;;23.68;32.98
28683;BME280;15862;43.062;25.626;2023-02-19T12:00:22;100006.16;;;24.59;31.75
28683;BME280;15862;43.062;25.626;2023-02-19T12:22:36;100010.72;;;25.81;30.22
28683;BME280;15862;43.062;25.626;2023-02-19T12:28:11;99997.03;;;24.15;32.20
28683;BME280;15862;43.062;25.626;2023-02-19T12:31:21;99994.06;;;23.91;32.72
28683;BME280;15862;43.062;25.626;2023-02-19T12:37:18;100000.22;;;26.69;29.95
28683;BME280;15862;43.062;25.626;2023-02-19T12:45:36;99984.56;;;26.11;29.73
28683;BME280;15862;43.062;25.626;2023-02-19T12:56:46;99973.38;;;26.52;29.94
28683;BME280;15862;43.062;25.626;2023-02-19T13:07:37;99953.50;;;24.11;32.96
28683;BME280;15862;43.062;25.626;2023-02-19T13:12:36;99938.91;;;24.74;31.97
28683;BME280;15862;43.062;25.626;2023-02-19T13:15:12;99935.66;;;25.18;31.58
28683;BME280;15862;43.062;25.626;2023-02-19T13:17:49;99912.22;;;25.41;30.72
28683;BME280;15862;43.062;25.626;2023-02-19T13:23:07;99914.41;;;25.76;30.37
28683;BME280;15862;43.062;25.626;2023-02-19T13:37:06;99917.88;;;20.56;38.19
28683;BME280;15862;43.062;25.626;2023-02-19T13:39:35;99910.84;;;20.48;38.71
28683;BME280;15862;43.062;25.626;2023-02-19T13:42:01;99900.78;;;20.37;38.75
28683;BME280;15862;43.062;25.626;2023-02-19T13:44:29;99903.59;;;20.28;39.39
28683;BME280;15862;43.062;25.626;2023-02-19T13:46:58;99901.06;;;20.20;39.75
28683;BME280;15862;43.062;25.626;2023-02-19T13:52:02;99899.00;;;20.07;39.84
28683;BME280;15862;43.062;25.626;2023-02-19T13:54:47;99893.16;;;19.90;40.01
28683;BME280;15862;43.062;25.626;2023-02-19T13:59:47;99898.34;;;19.67;40.12
28683;BME280;15862;43.062;25.626;2023-02-19T14:02:21;99886.25;;;19.58;40.52
28683;BME280;15862;43.062;25.626;2023-02-19T14:04:55;99886.63;;;19.47;40.55
28683;BME280;15862;43.062;25.626;2023-02-19T14:09:56;99891.91;;;19.31;41.09
28683;BME280;15862;43.062;25.626;2023-02-19T14:12:31;99878.47;;;19.26;41.09
28683;BME280;15862;43.062;25.626;2023-02-19T14:15:39;99875.88;;;19.18;41.48
28683;BME280;15862;43.062;25.626;2023-02-19T14:18:41;99877.22;;;19.15;41.20
28683;BME280;15862;43.062;25.626;2023-02-19T14:21:15;99874.09;;;19.11;41.42
28683;BME280;15862;43.062;25.626;2023-02-19T14:23:41;99874.41;;;19.08;41.61
28683;BME280;15862;43.062;25.626;2023-02-19T14:26:07;99872.16;;;19.13;41.66
28683;BME280;15862;43.062;25.626;2023-02-19T14:28:43;99880.00;;;19.21;41.92
28683;BME280;15862;43.062;25.626;2023-02-19T14:33:55;99859.69;;;19.15;42.28
28683;BME280;15862;43.062;25.626;2023-02-19T14:41:26;99870.16;;;19.15;42.81
28683;BME280;15862;43.062;25.626;2023-02-19T14:43:55;99871.00;;;19.16;42.81
28683;BME280;15862;43.062;25.626;2023-02-19T14:48:49;99865.75;;;19.16;43.37
28683;BME280;15862;43.062;25.626;2023-02-19T14:51:27;99863.81;;;19.10;43.18
28683;BME280;15862;43.062;25.626;2023-02-19T14:53:55;99870.00;;;19.01;43.74
28683;BME280;15862;43.062;25.626;2023-02-19T14:56:25;99877.88;;;18.85;44.07
28683;BME280;15862;43.062;25.626;2023-02-19T15:01:35;99863.16;;;18.76;44.47
28683;BME280;15862;43.062;25.626;2023-02-19T15:04:00;99859.06;;;18.65;44.51
28683;BME280;15862;43.062;25.626;2023-02-19T15:06:27;99856.94;;;18.61;44.81
28683;BME280;15862;43.062;25.626;2023-02-19T15:08:57;99849.44;;;18.42;45.23
28683;BME280;15862;43.062;25.626;2023-02-19T15:11:26;99852.69;;;18.28;45.90
28683;BME280;15862;43.062;25.626;2023-02-19T15:13:57;99852.69;;;18.28;45.47
28683;BME280;15862;43.062;25.626;2023-02-19T15:16:25;99856.59;;;18.24;45.88
28683;BME280;15862;43.062;25.626;2023-02-19T15:18:52;99862.31;;;18.12;45.89
28683;BME280;15862;43.062;25.626;2023-02-19T15:21:24;99866.19;;;18.08;46.10